createdAt,value
2022-10-23T00:04:44.859Z,80.55
2022-10-23T00:09:47.485Z,80.68
2022-10-23T00:14:50.101Z,80.96
2022-10-23T00:19:54.148Z,80.64
2022-10-23T00:24:56.759Z,80.70
2022-10-23T00:29:59.391Z,80.97
2022-10-23T00:35:03.495Z,80.96
2022-10-23T00:40:07.452Z,80.97
2022-10-23T00:45:22.940Z,80.81
2022-10-23T00:50:28.568Z,80.85
2022-10-23T00:55:33.796Z,81.10
2022-10-23T01:00:44.599Z,81.08
2022-10-23T01:05:50.959Z,80.79
2022-10-23T01:10:57.320Z,80.63
2022-10-23T01:16:08.522Z,81.11
2022-10-23T01:21:15.247Z,80.71
2022-10-23T01:26:30.440Z,80.93
2022-10-23T01:31:37.824Z,80.88
2022-10-23T01:36:43.087Z,80.98
2022-10-23T01:41:48.230Z,80.79
2022-10-23T01:46:58.975Z,81.13
2022-10-23T01:52:08.123Z,80.84
2022-10-23T01:57:14.245Z,80.80
2022-10-23T02:02:19.107Z,80.62
2022-10-23T02:07:22.516Z,80.60
2022-10-23T02:12:31.414Z,80.78
2022-10-23T02:17:44.888Z,80.87
2022-10-23T02:22:55.376Z,80.77
2022-10-23T02:27:59.497Z,80.77
2022-10-23T02:33:11.769Z,80.68
2022-10-23T02:38:36.215Z,80.36
2022-10-23T02:43:43.051Z,80.43
2022-10-23T02:48:54.914Z,80.24
2022-10-23T02:54:02.259Z,80.29
2022-10-23T02:59:12.085Z,80.20
2022-10-23T03:04:17.631Z,80.39
2022-10-23T03:09:20.389Z,80.52
2022-10-23T03:14:23.067Z,80.16
2022-10-23T03:19:27.768Z,80.32
2022-10-23T03:24:32.249Z,80.03
2022-10-23T03:29:34.964Z,80.36
2022-10-23T03:34:39.086Z,79.93
2022-10-23T03:39:45.175Z,80.15
2022-10-23T03:44:47.918Z,79.89
2022-10-23T03:49:51.942Z,80.00
2022-10-23T03:54:54.678Z,79.87
2022-10-23T03:59:57.414Z,80.06
2022-10-23T04:05:07.714Z,80.29
2022-10-23T04:10:11.016Z,80.10
2022-10-23T04:15:13.725Z,80.01
2022-10-23T04:20:20.754Z,79.81
2022-10-23T04:25:23.568Z,79.46
2022-10-23T04:30:26.310Z,79.94
2022-10-23T04:35:30.367Z,79.68
2022-10-23T04:40:33.069Z,79.46
2022-10-23T04:45:35.862Z,79.76
2022-10-23T04:50:39.905Z,79.55
2022-10-23T04:56:03.719Z,80.00
2022-10-23T05:01:13.296Z,80.41
2022-10-23T05:06:17.460Z,80.49
2022-10-23T05:11:40.451Z,80.56
2022-10-23T05:16:48.195Z,80.71
2022-10-23T05:21:55.750Z,80.92
2022-10-23T05:27:02.123Z,81.00
2022-10-23T05:32:08.035Z,80.84
2022-10-23T05:37:14.987Z,81.19
2022-10-23T05:42:18.263Z,81.14
2022-10-23T05:47:21.943Z,80.98
2022-10-23T05:52:49.027Z,80.95
2022-10-23T05:58:11.966Z,81.35
2022-10-23T06:03:35.055Z,81.11
2022-10-23T06:08:41.759Z,81.13
2022-10-23T06:13:45.184Z,81.13
2022-10-23T06:18:57.400Z,81.44
2022-10-23T06:24:01.531Z,81.40
2022-10-23T06:29:30.759Z,81.32
2022-10-23T06:34:33.575Z,80.91
2022-10-23T06:39:40.356Z,80.79
2022-10-23T06:44:48.878Z,80.37
2022-10-23T06:49:59.890Z,80.75
2022-10-23T06:55:04.279Z,80.71
2022-10-23T07:00:12.225Z,80.57
2022-10-23T07:05:24.383Z,80.66
2022-10-23T07:10:28.754Z,80.33
2022-10-23T07:15:33.703Z,80.58
2022-10-23T07:20:36.778Z,80.47
2022-10-23T07:25:41.267Z,80.57
2022-10-23T07:30:44.963Z,80.19
2022-10-23T07:35:49.954Z,80.16
2022-10-23T07:41:02.314Z,80.08
2022-10-23T07:46:05.441Z,79.47
2022-10-23T17:31:46.336Z,76.58
2022-10-23T17:36:51.563Z,76.89
2022-10-23T17:41:54.815Z,76.74
2022-10-23T17:46:58.834Z,77.22
2022-10-23T17:52:01.810Z,77.83
2022-10-23T17:57:04.438Z,78.01
2022-10-23T18:02:08.543Z,78.17
2022-10-23T18:07:11.569Z,78.24
2022-10-23T18:12:14.167Z,78.48
2022-10-23T18:17:18.139Z,78.57
2022-10-23T18:22:20.831Z,78.69
2022-10-23T18:27:23.580Z,78.78
2022-10-23T18:32:27.837Z,79.05
2022-10-23T18:37:33.885Z,79.03
2022-10-23T18:42:38.573Z,78.93
2022-10-23T18:47:42.854Z,79.17
2022-10-23T18:52:45.995Z,79.01
2022-10-23T18:57:48.619Z,79.04
2022-10-23T19:02:52.830Z,79.24
2022-10-23T19:07:55.663Z,79.42
2022-10-23T19:12:58.265Z,79.38
2022-10-23T19:18:02.650Z,79.33
2022-10-23T19:23:06.456Z,79.38
2022-10-23T19:28:10.096Z,79.51
2022-10-23T19:33:14.036Z,79.39
2022-10-23T19:38:16.686Z,79.36
2022-10-23T19:43:19.356Z,79.35
2022-10-23T19:48:23.281Z,79.49
2022-10-23T19:53:26.068Z,79.36
2022-10-23T19:58:28.688Z,79.57
2022-10-23T20:03:32.654Z,79.48
2022-10-23T20:08:35.360Z,79.50
2022-10-23T20:13:38.001Z,79.61
2022-10-23T20:18:41.925Z,80.06
2022-10-23T20:23:45.212Z,80.27
2022-10-23T20:28:48.444Z,79.92
2022-10-23T20:33:52.946Z,80.13
2022-10-23T20:38:56.619Z,80.03
2022-10-23T20:43:59.263Z,80.16
2022-10-23T20:49:03.288Z,80.27
2022-10-23T20:54:06.187Z,80.01
2022-10-23T20:59:11.796Z,79.82
2022-10-23T21:04:15.977Z,79.58
2022-10-23T21:09:18.594Z,79.63
2022-10-23T21:14:21.168Z,79.67
2022-10-23T21:19:25.118Z,79.44
2022-10-23T21:24:27.835Z,79.48
2022-10-23T21:29:30.556Z,79.42
2022-10-23T21:34:34.716Z,79.59
2022-10-23T21:39:37.360Z,79.34
2022-10-23T21:44:40.157Z,79.24
2022-10-23T21:49:44.349Z,79.48
2022-10-23T21:54:46.916Z,79.78
2022-10-23T21:59:49.726Z,79.66
2022-10-23T22:04:54.252Z,79.56
2022-10-23T22:09:56.870Z,79.64
2022-10-23T22:14:59.473Z,79.57
2022-10-23T22:20:03.395Z,79.55
2022-10-23T22:25:07.027Z,79.72
2022-10-23T22:30:10.267Z,79.94
2022-10-23T22:35:14.262Z,79.94
2022-10-23T22:40:16.975Z,79.72
2022-10-23T22:45:19.584Z,79.73
2022-10-23T22:50:23.611Z,80.02
2022-10-23T22:55:26.229Z,79.92
2022-10-23T23:00:28.812Z,79.96
2022-10-23T23:05:32.871Z,79.94
2022-10-23T23:10:35.488Z,80.21
2022-10-23T23:15:40.702Z,80.05
2022-10-23T23:20:44.742Z,80.21
2022-10-23T23:25:49.331Z,80.14
2022-10-23T23:31:03.253Z,80.33
2022-10-23T23:36:10.031Z,80.34
2022-10-23T23:41:13.587Z,80.21
2022-10-23T23:46:16.681Z,80.21
2022-10-23T23:51:25.135Z,80.10
2022-10-23T23:56:28.005Z,79.93
